Time;durP1;ratioP1;P1;durP2;ratioP2;P2;SDS_P1;SDS_P2;PMS_P1;PMS_P2;Temp;Humidity;BMP_temperature;BMP_pressure;BME280_temperature;BME280_humidity;BME280_pressure;Samples;Min_cycle;Max_cycle;Signal;HPM_P1;HPM_P2
2021/12/23 00:01:35;;;;;;;7.60;4.80;;;15.80;39.70;;;;;;5033650;28;20124;-50
2021/12/23 00:04:03;;;;;;;9.05;5.18;;;15.70;39.60;;;;;;5032912;28;20081;-47
2021/12/23 00:06:30;;;;;;;6.82;4.88;;;15.70;39.60;;;;;;5033985;28;20041;-46
2021/12/23 00:09:00;;;;;;;9.07;5.90;;;15.70;39.60;;;;;;5046362;28;20061;-49
2021/12/23 00:11:27;;;;;;;6.10;4.43;;;15.70;39.60;;;;;;5036178;28;20050;-48
2021/12/23 00:14:02;;;;;;;6.68;4.00;;;15.80;39.60;;;;;;5039045;28;20454;-48
2021/12/23 00:16:41;;;;;;;7.05;4.75;;;15.70;39.60;;;;;;5034830;28;20115;-51
2021/12/23 00:19:21;;;;;;;6.68;4.57;;;15.70;39.60;;;;;;5032105;28;20037;-47
2021/12/23 00:24:33;;;;;;;6.32;5.00;;;15.70;39.60;;;;;;5035115;28;20048;-49
2021/12/23 00:27:01;;;;;;;6.55;5.35;;;15.70;39.60;;;;;;5033947;28;20033;-47
2021/12/23 00:29:28;;;;;;;6.55;4.35;;;15.70;39.60;;;;;;5035526;28;20110;-45
2021/12/23 00:31:55;;;;;;;8.30;5.78;;;15.70;39.60;;;;;;5038623;28;20506;-46
2021/12/23 00:34:23;;;;;;;8.88;5.72;;;15.70;39.60;;;;;;5035021;28;20426;-46
2021/12/23 00:36:52;;;;;;;8.80;4.75;;;15.70;39.60;;;;;;5031558;28;20041;-46
2021/12/23 00:39:19;;;;;;;5.97;4.53;;;15.70;39.60;;;;;;5032872;28;20038;-46
2021/12/23 00:41:46;;;;;;;8.13;4.97;;;15.70;39.60;;;;;;5040367;28;20041;-47
2021/12/23 00:44:13;;;;;;;9.55;5.90;;;15.70;39.60;;;;;;5035303;28;20041;-44
2021/12/23 00:46:40;;;;;;;8.77;4.90;;;15.60;39.60;;;;;;5035403;28;20037;-45
2021/12/23 00:49:08;;;;;;;6.22;5.18;;;15.70;39.60;;;;;;5039977;28;20811;-46
2021/12/23 00:51:37;;;;;;;8.20;4.53;;;15.70;39.60;;;;;;5036317;28;20044;-50
2021/12/23 00:54:05;;;;;;;7.45;4.57;;;15.70;39.60;;;;;;5034985;28;20052;-47
2021/12/23 00:56:37;;;;;;;5.72;4.43;;;15.70;39.60;;;;;;5036888;28;20080;-48
2021/12/23 00:59:07;;;;;;;7.47;4.60;;;15.60;39.60;;;;;;5033977;28;20038;-44
2021/12/23 01:01:34;;;;;;;9.00;5.30;;;15.70;39.60;;;;;;5032251;28;20502;-45
2021/12/23 01:04:01;;;;;;;7.90;5.47;;;15.60;39.50;;;;;;5045329;28;20033;-49
2021/12/23 01:06:28;;;;;;;7.20;4.90;;;15.60;39.60;;;;;;5034421;28;20060;-47
2021/12/23 01:08:56;;;;;;;7.70;5.93;;;15.60;39.60;;;;;;5044842;28;20051;-47
2021/12/23 01:11:24;;;;;;;9.45;4.82;;;15.60;39.60;;;;;;5034888;28;20045;-46
2021/12/23 01:14:02;;;;;;;6.25;4.10;;;15.70;39.60;;;;;;5037887;28;20069;-46
2021/12/23 01:16:48;;;;;;;7.38;5.70;;;15.70;39.70;;;;;;5043864;28;20049;-46
2021/12/23 01:19:15;;;;;;;7.97;4.70;;;15.60;39.60;;;;;;5032818;28;20053;-46
2021/12/23 01:21:42;;;;;;;9.38;5.00;;;15.60;39.60;;;;;;5032320;28;20438;-47
2021/12/23 01:24:11;;;;;;;7.60;5.68;;;15.60;39.60;;;;;;5035426;28;20129;-48
2021/12/23 01:26:38;;;;;;;6.85;5.00;;;15.60;39.60;;;;;;5033650;28;20052;-48
2021/12/23 01:29:06;;;;;;;8.70;4.35;;;15.60;39.70;;;;;;5034738;28;20042;-45
2021/12/23 01:31:34;;;;;;;7.68;3.97;;;15.60;39.60;;;;;;5034426;28;20490;-46
2021/12/23 01:34:01;;;;;;;5.30;4.00;;;15.60;39.60;;;;;;5043566;28;20079;-45
2021/12/23 01:36:29;;;;;;;8.60;6.15;;;15.60;39.70;;;;;;5030709;28;20053;-46
2021/12/23 01:38:56;;;;;;;6.43;4.60;;;15.60;39.60;;;;;;5032766;28;20502;-49
2021/12/23 01:41:26;;;;;;;6.03;4.55;;;15.60;39.60;;;;;;5038838;28;20076;-47
2021/12/23 01:43:54;;;;;;;6.57;5.28;;;15.60;39.60;;;;;;5033907;28;20073;-46
2021/12/23 01:46:22;;;;;;;9.30;4.93;;;15.60;39.70;;;;;;5031473;28;20037;-49
2021/12/23 01:48:49;;;;;;;9.10;5.50;;;15.60;39.60;;;;;;5036873;28;20049;-47
2021/12/23 01:51:17;;;;;;;7.53;4.82;;;15.60;39.70;;;;;;5039625;28;20057;-48
2021/12/23 01:53:44;;;;;;;6.32;4.32;;;15.60;39.70;;;;;;5039382;28;20059;-47
2021/12/23 01:56:11;;;;;;;8.30;5.00;;;15.60;39.70;;;;;;5038510;28;20520;-47
2021/12/23 01:58:41;;;;;;;5.72;4.28;;;15.60;39.70;;;;;;5038803;28;20125;-50
2021/12/23 02:01:09;;;;;;;7.65;4.95;;;15.60;39.70;;;;;;5038663;28;20053;-50
2021/12/23 02:03:37;;;;;;;8.55;4.88;;;15.60;39.70;;;;;;5034756;28;20049;-46
2021/12/23 02:06:04;;;;;;;6.00;4.65;;;15.60;39.70;;;;;;5037708;28;20832;-45
2021/12/23 02:08:31;;;;;;;8.88;5.28;;;15.60;39.70;;;;;;5041344;28;20375;-46
2021/12/23 02:10:59;;;;;;;5.72;3.90;;;15.60;39.70;;;;;;5039205;28;20342;-48
2021/12/23 02:13:27;;;;;;;7.32;4.32;;;15.60;39.70;;;;;;5037616;28;20366;-45
2021/12/23 02:15:55;;;;;;;5.18;3.85;;;15.60;39.70;;;;;;5036920;28;20044;-50
2021/12/23 02:18:23;;;;;;;8.60;4.70;;;15.60;39.70;;;;;;5048150;28;20809;-49
2021/12/23 02:20:53;;;;;;;7.75;4.40;;;15.60;39.70;;;;;;5040054;28;20041;-49
2021/12/23 02:23:20;;;;;;;8.75;5.10;;;15.60;39.60;;;;;;5039686;28;20430;-45
2021/12/23 02:25:47;;;;;;;5.40;4.28;;;15.60;40.00;;;;;;5035025;28;20053;-48
2021/12/23 02:28:16;;;;;;;7.10;5.28;;;15.60;40.30;;;;;;5033389;28;20043;-50
2021/12/23 02:30:43;;;;;;;7.43;5.13;;;15.60;39.60;;;;;;5033013;28;20049;-48
2021/12/23 02:33:10;;;;;;;7.18;3.85;;;15.60;39.70;;;;;;5038162;28;20067;-47
2021/12/23 02:35:38;;;;;;;6.35;4.03;;;15.60;39.70;;;;;;5035963;28;20055;-46
2021/12/23 02:38:07;;;;;;;7.70;5.05;;;15.60;39.70;;;;;;5037613;28;20095;-45
2021/12/23 02:40:36;;;;;;;6.30;4.32;;;15.60;39.60;;;;;;5037136;28;20042;-46
2021/12/23 02:43:11;;;;;;;6.80;4.28;;;15.60;39.60;;;;;;5035764;28;20499;-47
2021/12/23 02:45:38;;;;;;;7.80;4.90;;;15.60;39.60;;;;;;5033049;28;20062;-48
2021/12/23 02:48:11;;;;;;;8.43;5.43;;;15.60;39.60;;;;;;5034772;28;20041;-47
2021/12/23 02:50:38;;;;;;;7.45;3.85;;;15.70;39.70;;;;;;5040391;28;20514;-49
2021/12/23 02:53:07;;;;;;;6.45;3.90;;;15.60;39.70;;;;;;5036351;28;20045;-48
2021/12/23 02:55:34;;;;;;;6.43;4.57;;;15.60;39.60;;;;;;5035081;28;20140;-47
2021/12/23 02:58:01;;;;;;;8.77;4.65;;;15.60;39.60;;;;;;5034647;28;20041;-48
2021/12/23 03:00:29;;;;;;;7.57;5.10;;;15.60;39.60;;;;;;5036435;28;20048;-46
2021/12/23 03:02:56;;;;;;;9.75;5.25;;;15.60;39.60;;;;;;5035615;28;20080;-46
2021/12/23 03:05:24;;;;;;;5.60;4.10;;;15.70;39.70;;;;;;5037197;28;20076;-45
2021/12/23 03:07:50;;;;;;;8.57;5.57;;;15.60;39.60;;;;;;5040824;28;20056;-47
2021/12/23 03:10:22;;;;;;;7.88;5.32;;;15.60;39.60;;;;;;5036616;28;20039;-45
2021/12/23 03:12:49;;;;;;;9.30;5.05;;;15.60;39.60;;;;;;5032805;28;20037;-46
2021/12/23 03:15:17;;;;;;;7.60;4.00;;;15.60;39.60;;;;;;5033904;28;20052;-47
2021/12/23 03:17:44;;;;;;;5.63;4.45;;;15.60;39.60;;;;;;5046478;28;20045;-49
2021/12/23 03:20:12;;;;;;;6.63;4.93;;;15.60;39.60;;;;;;5038950;28;20049;-48
2021/12/23 03:22:39;;;;;;;6.63;4.28;;;15.70;39.60;;;;;;5046107;28;20128;-52
2021/12/23 03:25:07;;;;;;;7.47;5.28;;;15.60;39.60;;;;;;5035238;28;20037;-49
2021/12/23 03:27:35;;;;;;;10.00;5.70;;;15.60;39.60;;;;;;5037634;28;20042;-45
2021/12/23 03:30:03;;;;;;;10.15;5.20;;;15.60;39.60;;;;;;5037047;28;20041;-47
2021/12/23 03:32:30;;;;;;;6.65;5.05;;;15.60;39.60;;;;;;5037965;28;20128;-51
2021/12/23 03:34:57;;;;;;;9.73;4.65;;;15.60;39.60;;;;;;5040847;28;20033;-47
2021/12/23 03:37:27;;;;;;;5.53;3.80;;;15.60;39.60;;;;;;5046468;28;20120;-46
2021/12/23 03:39:55;;;;;;;7.55;5.25;;;15.60;39.60;;;;;;5033644;28;20041;-44
2021/12/23 03:42:22;;;;;;;8.70;5.63;;;15.60;39.60;;;;;;5034320;28;20502;-46
2021/12/23 03:44:51;;;;;;;8.77;4.88;;;15.60;39.60;;;;;;5034210;28;20784;-47
2021/12/23 03:47:18;;;;;;;8.60;4.57;;;15.60;39.60;;;;;;5034221;28;20052;-46
2021/12/23 03:49:45;;;;;;;6.80;4.53;;;15.60;39.60;;;;;;5037874;28;20049;-46
2021/12/23 03:52:12;;;;;;;7.55;4.25;;;15.60;39.60;;;;;;5033929;28;20029;-45
2021/12/23 03:54:39;;;;;;;6.13;4.38;;;15.60;39.60;;;;;;5045083;28;20071;-46
2021/12/23 03:57:06;;;;;;;6.43;4.20;;;15.60;39.60;;;;;;5032815;28;20044;-49
2021/12/23 03:59:33;;;;;;;6.28;4.70;;;15.60;39.60;;;;;;5039107;28;20104;-50
2021/12/23 04:02:02;;;;;;;10.45;4.70;;;15.60;39.60;;;;;;5034781;28;20432;-50
2021/12/23 04:04:29;;;;;;;7.90;5.45;;;15.60;40.20;;;;;;5033198;28;20048;-50
2021/12/23 04:06:56;;;;;;;7.65;4.68;;;15.60;39.60;;;;;;5033121;28;20662;-48
2021/12/23 04:09:23;;;;;;;6.80;4.78;;;15.60;39.60;;;;;;5035628;28;20184;-48
2021/12/23 04:11:50;;;;;;;6.53;4.43;;;15.60;39.60;;;;;;5035016;28;20034;-52
2021/12/23 04:14:18;;;;;;;11.52;5.20;;;15.60;39.60;;;;;;5034094;28;20064;-47
2021/12/23 04:16:44;;;;;;;8.68;4.82;;;15.60;39.60;;;;;;5037539;28;20041;-49
2021/12/23 04:19:13;;;;;;;8.05;5.70;;;15.60;39.60;;;;;;5034882;28;20492;-51
2021/12/23 04:21:41;;;;;;;6.22;4.82;;;15.60;39.60;;;;;;5031405;28;20045;-48
2021/12/23 04:24:09;;;;;;;5.07;4.13;;;15.60;39.60;;;;;;5031985;28;20566;-48
2021/12/23 04:26:38;;;;;;;5.68;3.70;;;15.60;39.70;;;;;;5039621;28;20041;-50
2021/12/23 04:29:06;;;;;;;4.50;3.67;;;15.60;39.60;;;;;;5035394;28;20429;-45
2021/12/23 04:31:34;;;;;;;6.30;4.80;;;15.60;39.60;;;;;;5033989;28;20113;-47
2021/12/23 04:34:01;;;;;;;6.63;4.18;;;15.60;39.60;;;;;;5033541;28;20040;-47
2021/12/23 04:36:30;;;;;;;5.07;4.10;;;15.60;39.60;;;;;;5035482;28;20125;-48
2021/12/23 04:38:58;;;;;;;6.18;3.83;;;15.60;39.60;;;;;;5044994;28;20045;-45
2021/12/23 04:41:25;;;;;;;7.47;4.60;;;15.60;39.60;;;;;;5037361;28;20037;-47
2021/12/23 04:43:53;;;;;;;7.25;4.75;;;15.60;39.60;;;;;;5038279;28;20045;-46
2021/12/23 04:46:20;;;;;;;6.90;4.78;;;15.60;40.20;;;;;;5035886;28;20044;-49
2021/12/23 04:48:47;;;;;;;10.10;4.22;;;15.60;39.60;;;;;;5032153;28;20051;-49
2021/12/23 04:51:17;;;;;;;6.70;4.90;;;15.60;39.60;;;;;;5033547;28;20443;-52
2021/12/23 04:53:46;;;;;;;5.80;4.55;;;15.60;39.60;;;;;;5035022;28;20101;-49
2021/12/23 04:56:14;;;;;;;6.95;4.80;;;15.60;39.60;;;;;;5032158;28;20044;-49
2021/12/23 04:58:41;;;;;;;4.90;3.70;;;15.60;39.70;;;;;;5035375;28;20071;-48
2021/12/23 05:01:16;;;;;;;7.55;4.55;;;15.60;39.70;;;;;;5034131;28;20029;-47
2021/12/23 05:03:43;;;;;;;6.22;3.65;;;15.60;39.70;;;;;;5029852;28;20051;-51
2021/12/23 05:06:11;;;;;;;4.40;3.88;;;15.60;39.60;;;;;;5030220;28;20750;-45
2021/12/23 05:08:38;;;;;;;6.20;4.97;;;15.60;39.60;;;;;;5038891;28;20051;-45
2021/12/23 05:11:06;;;;;;;8.45;5.30;;;15.60;39.60;;;;;;5038622;28;20045;-47
2021/12/23 05:13:33;;;;;;;8.02;5.22;;;15.60;39.70;;;;;;5032357;28;20069;-45
2021/12/23 05:16:01;;;;;;;8.07;4.80;;;15.60;40.30;;;;;;5046975;28;20052;-46
2021/12/23 05:18:28;;;;;;;7.05;4.72;;;15.60;39.70;;;;;;5033026;28;20164;-48
2021/12/23 05:20:55;;;;;;;9.73;5.13;;;15.60;39.70;;;;;;5032259;28;20065;-45
2021/12/23 05:23:22;;;;;;;7.97;5.47;;;15.60;39.60;;;;;;5033304;28;20049;-45
2021/12/23 05:25:49;;;;;;;6.65;4.30;;;15.50;40.20;;;;;;5036763;28;20052;-51
2021/12/23 05:28:17;;;;;;;8.52;4.53;;;15.60;39.60;;;;;;5033743;28;20063;-48
2021/12/23 05:30:44;;;;;;;9.73;4.78;;;15.60;39.70;;;;;;5030916;28;20540;-47
2021/12/23 05:33:11;;;;;;;6.85;4.63;;;15.60;39.70;;;;;;5031420;28;20115;-48
2021/12/23 05:35:38;;;;;;;11.07;5.55;;;15.60;39.70;;;;;;5037992;28;20522;-45
2021/12/23 05:38:05;;;;;;;5.93;4.45;;;15.60;39.70;;;;;;5039317;28;20045;-45
2021/12/23 05:40:34;;;;;;;6.95;4.80;;;15.50;39.60;;;;;;5043445;28;20040;-47
2021/12/23 05:43:01;;;;;;;6.30;4.03;;;15.60;39.70;;;;;;5032805;28;20037;-48
2021/12/23 05:45:30;;;;;;;6.15;4.43;;;15.60;39.60;;;;;;5034650;28;20045;-44
2021/12/23 05:47:58;;;;;;;10.55;3.70;;;15.60;39.70;;;;;;5032865;28;20057;-47
2021/12/23 05:50:26;;;;;;;8.32;4.78;;;15.60;39.70;;;;;;5033712;28;20799;-45
2021/12/23 05:52:54;;;;;;;8.48;5.00;;;15.60;39.70;;;;;;5037915;28;20053;-46
2021/12/23 05:55:21;;;;;;;5.90;4.05;;;15.60;39.70;;;;;;5034535;28;20429;-45
2021/12/23 05:57:48;;;;;;;7.78;4.32;;;15.60;39.70;;;;;;5038270;28;20112;-45
2021/12/23 06:00:19;;;;;;;9.98;5.05;;;15.60;39.70;;;;;;5032410;28;20458;-45
2021/12/23 06:02:48;;;;;;;7.22;4.60;;;15.60;39.70;;;;;;5038689;28;20510;-44
2021/12/23 06:05:16;;;;;;;7.35;4.97;;;15.60;39.70;;;;;;5035002;28;20045;-45
2021/12/23 06:07:43;;;;;;;8.68;5.97;;;15.60;39.70;;;;;;5036330;28;20422;-45
2021/12/23 06:10:12;;;;;;;7.85;4.22;;;15.60;39.70;;;;;;5033356;28;20513;-45
2021/12/23 06:12:40;;;;;;;8.18;4.15;;;15.60;39.70;;;;;;5035545;28;20148;-49
2021/12/23 06:15:08;;;;;;;9.05;4.28;;;15.60;39.70;;;;;;5033828;28;20060;-46
2021/12/23 06:17:36;;;;;;;5.57;3.72;;;15.50;39.60;;;;;;5036249;28;20052;-45
2021/12/23 06:20:06;;;;;;;5.78;4.50;;;15.60;39.70;;;;;;5039570;28;20059;-45
2021/12/23 06:22:35;;;;;;;7.97;4.35;;;15.60;39.70;;;;;;5044477;28;20048;-46
2021/12/23 06:25:03;;;;;;;8.48;5.28;;;15.60;39.70;;;;;;5044797;28;20044;-47
2021/12/23 06:27:30;;;;;;;7.03;4.60;;;15.60;39.70;;;;;;5034241;28;20045;-44
2021/12/23 06:29:57;;;;;;;5.25;3.78;;;15.60;39.70;;;;;;5033683;28;20041;-44
2021/12/23 06:32:24;;;;;;;6.40;3.85;;;15.60;39.70;;;;;;5036304;28;20045;-48
2021/12/23 06:34:51;;;;;;;5.45;4.10;;;15.60;39.70;;;;;;5040332;28;20069;-49
2021/12/23 06:37:20;;;;;;;6.13;4.30;;;15.60;39.70;;;;;;5036189;28;20060;-48
2021/12/23 06:39:47;;;;;;;9.02;3.60;;;15.60;39.70;;;;;;5033291;28;20056;-46
2021/12/23 06:42:16;;;;;;;6.03;3.17;;;15.60;39.70;;;;;;5033654;28;20133;-46
2021/12/23 06:44:43;;;;;;;8.60;4.18;;;15.60;39.70;;;;;;5041704;28;20080;-47
2021/12/23 06:47:10;;;;;;;5.80;3.63;;;15.60;39.70;;;;;;5035574;28;20059;-45
2021/12/23 06:49:37;;;;;;;6.10;3.88;;;15.60;39.70;;;;;;5036100;28;20524;-49
2021/12/23 06:52:05;;;;;;;8.63;5.20;;;15.60;39.70;;;;;;5035258;28;20033;-50
2021/12/23 06:54:33;;;;;;;6.43;4.32;;;15.60;39.70;;;;;;5035923;28;20045;-45
2021/12/23 06:57:00;;;;;;;5.60;3.53;;;15.50;39.70;;;;;;5036066;28;20042;-49
2021/12/23 06:59:28;;;;;;;7.13;4.22;;;15.60;39.70;;;;;;5037215;28;20064;-46
2021/12/23 07:01:55;;;;;;;5.18;3.72;;;15.50;39.70;;;;;;5040254;28;20573;-44
2021/12/23 07:04:26;;;;;;;6.13;3.83;;;15.60;39.70;;;;;;5046543;28;20394;-49
2021/12/23 07:07:07;;;;;;;5.53;3.85;;;15.50;39.70;;;;;;5033701;28;20124;-51
2021/12/23 07:09:35;;;;;;;5.13;3.85;;;15.50;39.70;;;;;;5039826;28;20413;-47
2021/12/23 07:12:03;;;;;;;7.25;4.70;;;15.50;39.70;;;;;;5042180;28;20037;-50
2021/12/23 07:14:30;;;;;;;4.70;3.35;;;15.50;39.70;;;;;;5040380;28;20052;-49
2021/12/23 07:16:57;;;;;;;7.40;4.15;;;15.50;39.70;;;;;;5037404;28;20430;-45
2021/12/23 07:19:24;;;;;;;6.45;3.13;;;15.50;39.70;;;;;;5036380;28;20107;-48
2021/12/23 07:21:51;;;;;;;6.38;3.20;;;15.50;39.70;;;;;;5037851;28;20033;-45
2021/12/23 07:24:18;;;;;;;6.15;3.63;;;15.50;39.70;;;;;;5034756;28;20046;-47
2021/12/23 07:26:46;;;;;;;5.70;3.58;;;15.50;39.70;;;;;;5037396;28;20049;-50
2021/12/23 07:29:14;;;;;;;5.55;3.83;;;15.50;40.30;;;;;;5041715;28;20115;-50
2021/12/23 07:31:41;;;;;;;5.93;4.07;;;15.50;39.70;;;;;;5037950;28;20140;-51
2021/12/23 07:34:08;;;;;;;4.57;3.42;;;15.50;39.70;;;;;;5034444;28;20465;-47
2021/12/23 07:36:36;;;;;;;4.80;3.75;;;15.50;39.70;;;;;;5034557;28;20049;-50
2021/12/23 07:39:07;;;;;;;5.88;4.30;;;15.50;39.80;;;;;;5048123;28;20557;-48
2021/12/23 07:41:34;;;;;;;4.90;3.95;;;15.60;39.80;;;;;;5035579;28;20044;-48
2021/12/23 07:44:05;;;;;;;10.02;4.55;;;15.60;39.80;;;;;;5038289;28;20749;-48
2021/12/23 07:46:35;;;;;;;4.55;3.63;;;15.60;39.80;;;;;;5034430;28;20076;-48
2021/12/23 07:49:02;;;;;;;5.20;3.33;;;15.60;39.80;;;;;;5032277;28;20052;-51
2021/12/23 07:51:29;;;;;;;5.50;3.15;;;15.50;39.70;;;;;;5032212;28;20473;-50
2021/12/23 07:53:56;;;;;;;5.15;3.33;;;15.60;39.80;;;;;;5036820;28;20084;-47
2021/12/23 07:56:24;;;;;;;4.22;3.03;;;15.60;39.80;;;;;;5042700;28;20045;-48
2021/12/23 07:58:52;;;;;;;6.70;3.65;;;15.60;40.40;;;;;;5041883;28;20053;-43
2021/12/23 08:01:20;;;;;;;5.25;3.65;;;15.60;39.80;;;;;;5034168;28;20044;-49
2021/12/23 08:03:47;;;;;;;6.47;3.45;;;15.60;39.80;;;;;;5040500;28;20064;-49
2021/12/23 08:06:15;;;;;;;4.80;3.00;;;15.60;39.80;;;;;;5033974;28;20049;-47
2021/12/23 08:08:42;;;;;;;6.43;4.43;;;15.60;39.80;;;;;;5037360;28;20510;-48
2021/12/23 08:11:09;;;;;;;5.75;3.47;;;15.60;39.80;;;;;;5039603;28;20537;-48
2021/12/23 08:13:37;;;;;;;5.43;3.67;;;15.60;39.80;;;;;;5035401;28;20128;-47
2021/12/23 08:16:05;;;;;;;5.30;2.85;;;15.60;39.80;;;;;;5032373;28;20402;-45
2021/12/23 08:18:34;;;;;;;5.10;3.10;;;15.60;39.80;;;;;;5032706;28;20083;-48
2021/12/23 08:21:02;;;;;;;5.57;3.55;;;15.60;39.80;;;;;;5039890;28;20049;-46
2021/12/23 08:23:29;;;;;;;6.13;3.92;;;15.60;39.80;;;;;;5036282;28;20041;-45
2021/12/23 08:25:59;;;;;;;4.57;3.20;;;15.60;39.90;;;;;;5036353;28;20037;-45
2021/12/23 08:28:26;;;;;;;4.68;3.33;;;15.70;39.80;;;;;;5035153;28;20083;-53
2021/12/23 08:30:53;;;;;;;7.90;4.28;;;15.60;39.80;;;;;;5036381;28;20464;-49
2021/12/23 08:33:21;;;;;;;5.60;4.65;;;15.60;39.80;;;;;;5032651;28;20502;-49
2021/12/23 08:35:49;;;;;;;4.53;3.40;;;15.60;39.80;;;;;;5036974;28;20506;-44
2021/12/23 08:38:16;;;;;;;7.13;3.25;;;15.70;39.80;;;;;;5034598;28;20033;-46
2021/12/23 08:40:43;;;;;;;5.50;3.70;;;15.70;39.90;;;;;;5037143;28;20435;-45
2021/12/23 08:43:10;;;;;;;6.93;3.40;;;15.70;39.90;;;;;;5032050;28;20045;-48
2021/12/23 08:45:37;;;;;;;7.57;3.65;;;15.70;39.90;;;;;;5033318;28;20358;-51
2021/12/23 08:48:05;;;;;;;5.78;3.90;;;15.70;39.80;;;;;;5033497;28;20414;-49
2021/12/23 08:50:33;;;;;;;6.75;3.22;;;15.70;39.80;;;;;;5033000;28;20048;-48
2021/12/23 08:53:02;;;;;;;4.32;3.22;;;15.70;39.80;;;;;;5037541;28;20043;-47
2021/12/23 08:55:31;;;;;;;5.53;3.38;;;15.70;39.80;;;;;;5033545;28;20112;-47
2021/12/23 08:57:59;;;;;;;6.65;3.35;;;15.70;39.80;;;;;;5030645;28;20033;-44
2021/12/23 09:00:29;;;;;;;5.30;4.60;;;15.70;39.80;;;;;;5030782;28;20042;-48
2021/12/23 09:02:56;;;;;;;6.68;4.35;;;15.70;39.80;;;;;;5037702;28;20179;-45
2021/12/23 09:05:24;;;;;;;4.55;3.63;;;15.70;39.80;;;;;;5032895;28;20038;-43
2021/12/23 09:07:51;;;;;;;5.65;3.22;;;15.70;39.80;;;;;;5035813;28;20112;-47
2021/12/23 09:10:20;;;;;;;4.10;3.53;;;15.70;39.80;;;;;;5033053;28;20043;-45
2021/12/23 09:12:48;;;;;;;5.57;3.50;;;15.70;39.80;;;;;;5036714;28;20033;-46
2021/12/23 09:15:15;;;;;;;6.10;4.32;;;15.80;39.80;;;;;;5028811;28;20057;-45
2021/12/23 09:17:43;;;;;;;4.10;3.63;;;15.80;39.80;;;;;;5035095;28;20513;-44
2021/12/23 09:20:12;;;;;;;7.20;3.58;;;15.80;39.80;;;;;;5039405;28;20410;-44
2021/12/23 09:22:39;;;;;;;4.30;3.90;;;15.80;39.80;;;;;;5034723;28;20037;-49
2021/12/23 09:25:12;;;;;;;6.03;3.10;;;15.80;39.80;;;;;;5031713;28;20033;-43
2021/12/23 09:27:53;;;;;;;7.70;4.43;;;15.80;39.80;;;;;;5032042;28;20132;-44
2021/12/23 09:33:05;;;;;;;5.05;2.75;;;15.80;39.80;;;;;;5033565;28;20046;-44
2021/12/23 09:35:33;;;;;;;6.68;4.88;;;15.80;39.80;;;;;;5035474;28;20053;-46
2021/12/23 09:38:01;;;;;;;5.57;3.45;;;15.80;39.80;;;;;;5039402;28;20045;-47
2021/12/23 09:40:32;;;;;;;8.38;3.15;;;15.80;39.80;;;;;;5035556;28;20041;-47
2021/12/23 09:43:02;;;;;;;5.38;3.00;;;15.80;39.80;;;;;;5031446;28;20076;-47
2021/12/23 09:45:29;;;;;;;5.75;3.05;;;15.90;39.90;;;;;;5032168;28;20125;-47
2021/12/23 09:47:58;;;;;;;7.53;3.80;;;15.90;39.90;;;;;;5046381;28;20053;-49
2021/12/23 09:50:28;;;;;;;5.57;4.45;;;15.90;39.90;;;;;;5038616;28;20895;-47
2021/12/23 09:52:55;;;;;;;5.63;3.90;;;15.90;39.90;;;;;;5037163;28;20090;-44
2021/12/23 09:55:24;;;;;;;7.78;4.07;;;15.90;39.80;;;;;;5032323;28;20037;-45
2021/12/23 09:57:54;;;;;;;6.85;3.67;;;15.90;39.90;;;;;;5030083;28;20746;-46
2021/12/23 10:00:25;;;;;;;6.70;4.10;;;15.90;39.80;;;;;;5029701;28;20573;-45
2021/12/23 10:02:53;;;;;;;5.30;3.25;;;15.90;39.80;;;;;;5060566;28;20076;-45
2021/12/23 10:05:22;;;;;;;6.90;4.10;;;16.00;39.90;;;;;;5033358;28;20052;-47
2021/12/23 10:07:50;;;;;;;4.50;2.97;;;15.90;39.80;;;;;;5035342;28;20083;-45
2021/12/23 10:10:23;;;;;;;5.20;3.72;;;16.00;39.80;;;;;;5035881;28;20037;-44
2021/12/23 10:13:17;;;;;;;6.85;4.40;;;16.00;39.90;;;;;;5032617;28;20175;-45
2021/12/23 10:38:04;;;;;;;8.48;4.95;;;16.10;40.10;;;;;;5047408;28;20041;-47
2021/12/23 10:40:31;;;;;;;8.80;4.45;;;16.10;40.00;;;;;;5038285;28;20043;-48
2021/12/23 10:42:58;;;;;;;9.15;5.03;;;16.10;40.00;;;;;;5034165;28;20035;-48
2021/12/23 10:45:34;;;;;;;7.75;3.90;;;16.10;40.00;;;;;;5036764;28;20608;-53
2021/12/23 10:48:10;;;;;;;7.43;3.53;;;16.20;40.00;;;;;;5040901;28;20076;-46
2021/12/23 10:50:42;;;;;;;10.02;5.22;;;16.20;40.00;;;;;;5044959;28;20136;-49
2021/12/23 10:53:14;;;;;;;9.88;4.45;;;16.20;40.00;;;;;;5036770;28;20040;-46
2021/12/23 10:58:27;;;;;;;8.30;3.85;;;16.20;40.00;;;;;;5032461;28;20041;-52
2021/12/23 11:00:59;;;;;;;10.73;5.10;;;16.20;40.00;;;;;;5034457;28;20037;-46
2021/12/23 11:03:32;;;;;;;8.13;4.38;;;16.20;40.00;;;;;;5035078;28;20056;-49
2021/12/23 11:06:07;;;;;;;7.28;3.13;;;16.30;40.00;;;;;;5036529;28;20045;-50
2021/12/23 11:08:45;;;;;;;7.88;3.45;;;16.30;40.10;;;;;;5036405;28;20583;-48
2021/12/23 11:39:24;;;;;;;6.13;3.70;;;16.40;40.10;;;;;;5010790;28;20557;-48
2021/12/23 11:42:00;;;;;;;7.20;3.35;;;16.50;40.20;;;;;;5015850;28;20789;-46
2021/12/23 11:44:30;;;;;;;6.28;2.60;;;16.50;40.20;;;;;;5012742;28;20137;-51
2021/12/23 11:47:02;;;;;;;3.30;2.50;;;16.50;40.20;;;;;;5012518;28;20049;-49
2021/12/23 11:49:31;;;;;;;6.90;2.58;;;16.50;40.20;;;;;;5010132;28;20049;-45
2021/12/23 11:52:01;;;;;;;3.80;2.25;;;16.50;40.20;;;;;;5013946;28;20442;-47
2021/12/23 11:54:31;;;;;;;5.88;2.35;;;16.50;40.20;;;;;;5010539;28;20050;-49
2021/12/23 11:57:03;;;;;;;5.95;2.45;;;16.60;40.30;;;;;;5016778;28;20053;-51
2021/12/23 11:59:31;;;;;;;4.53;1.92;;;16.60;40.20;;;;;;5019049;28;20580;-45
2021/12/23 12:01:59;;;;;;;4.57;2.75;;;16.60;40.20;;;;;;5014689;28;20545;-44
2021/12/23 12:04:28;;;;;;;4.47;2.67;;;16.60;40.20;;;;;;5009046;28;20125;-45
2021/12/23 12:06:57;;;;;;;3.58;1.88;;;16.60;40.20;;;;;;5021931;28;20041;-49
2021/12/23 12:09:27;;;;;;;3.55;2.35;;;16.70;40.30;;;;;;4992953;28;20525;-45
2021/12/23 12:12:07;;;;;;;5.35;3.10;;;16.70;40.40;;;;;;5010941;28;20095;-46
2021/12/23 12:14:43;;;;;;;5.90;2.42;;;16.90;40.50;;;;;;5022629;28;20052;-47
2021/12/23 12:17:39;;;;;;;2.38;1.05;;;17.00;40.30;;;;;;5034212;28;20124;-50
2021/12/23 12:20:23;;;;;;;1.90;1.40;;;17.10;40.20;;;;;;5038652;28;20242;-46
2021/12/23 12:22:57;;;;;;;2.25;1.75;;;17.10;40.10;;;;;;5034638;28;20041;-47
2021/12/23 12:25:54;;;;;;;4.65;2.38;;;17.20;40.10;;;;;;5032347;28;20502;-52
2021/12/23 12:28:33;;;;;;;2.88;1.73;;;17.40;40.00;;;;;;5034013;28;20037;-51
2021/12/23 12:31:05;;;;;;;3.28;1.75;;;17.40;39.90;;;;;;5034338;28;20057;-47
2021/12/23 12:33:41;;;;;;;3.67;1.50;;;17.50;39.80;;;;;;5031404;28;20146;-46
2021/12/23 12:36:10;;;;;;;3.33;2.00;;;17.60;39.70;;;;;;5032721;28;20442;-46
2021/12/23 12:38:39;;;;;;;3.83;1.80;;;17.60;39.70;;;;;;5040120;28;20052;-51
2021/12/23 12:41:09;;;;;;;2.30;2.05;;;17.70;40.10;;;;;;5035308;28;20567;-44
2021/12/23 12:44:01;;;;;;;2.20;1.33;;;17.80;39.40;;;;;;5034389;28;20133;-51
2021/12/23 12:47:01;;;;;;;2.10;1.42;;;17.90;39.30;;;;;;5035312;28;20094;-48
2021/12/23 12:49:30;;;;;;;2.50;1.40;;;18.00;39.30;;;;;;5044707;28;20115;-48
2021/12/23 12:52:25;;;;;;;1.90;1.33;;;18.00;39.30;;;;;;5031738;28;20048;-46
2021/12/23 12:54:56;;;;;;;2.10;1.20;;;18.10;39.20;;;;;;5035362;28;20049;-48
2021/12/23 12:57:31;;;;;;;4.15;1.70;;;18.10;39.10;;;;;;5036330;28;20053;-48
2021/12/23 13:00:00;;;;;;;2.55;1.58;;;18.20;39.00;;;;;;5034477;28;20042;-48
2021/12/23 13:02:31;;;;;;;3.08;1.17;;;18.30;39.00;;;;;;5036558;28;20053;-51
2021/12/23 13:05:05;;;;;;;2.70;1.08;;;18.30;39.00;;;;;;5039519;28;20119;-47
2021/12/23 13:08:17;;;;;;;2.00;1.25;;;18.40;38.90;;;;;;5040588;28;20406;-48
2021/12/23 13:10:58;;;;;;;1.27;1.00;;;18.40;38.80;;;;;;5044188;28;20048;-46
2021/12/23 13:14:01;;;;;;;3.17;1.30;;;18.50;38.80;;;;;;5041189;28;20057;-45
2021/12/23 13:16:53;;;;;;;3.33;1.83;;;18.60;38.80;;;;;;5032487;28;20140;-47
2021/12/23 13:19:23;;;;;;;1.88;1.15;;;18.60;38.70;;;;;;5039258;28;20092;-47
2021/12/23 13:21:54;;;;;;;3.75;1.10;;;18.60;38.60;;;;;;5043063;28;20581;-45
2021/12/23 13:24:23;;;;;;;2.25;0.85;;;18.70;38.60;;;;;;5043676;28;20485;-46
2021/12/23 13:26:53;;;;;;;0.93;0.82;;;18.80;38.50;;;;;;5043541;28;20520;-48
2021/12/23 13:29:26;;;;;;;3.90;1.20;;;18.80;38.40;;;;;;5042913;28;20049;-46
2021/12/23 13:31:55;;;;;;;1.42;1.13;;;18.90;38.40;;;;;;5043061;28;20053;-47
2021/12/23 13:34:23;;;;;;;2.13;1.48;;;18.90;38.40;;;;;;5043076;28;20055;-46
2021/12/23 13:36:53;;;;;;;4.10;1.33;;;18.90;38.30;;;;;;5042930;28;20543;-48
2021/12/23 13:39:21;;;;;;;1.45;1.38;;;19.00;38.30;;;;;;5043405;28;20606;-47
2021/12/23 13:41:52;;;;;;;3.45;0.98;;;19.00;38.20;;;;;;5043073;28;20088;-50
2021/12/23 13:44:24;;;;;;;1.65;0.75;;;19.10;38.20;;;;;;5046205;28;20049;-46
2021/12/23 13:47:01;;;;;;;1.98;0.63;;;19.10;38.10;;;;;;5046325;28;20557;-48
2021/12/23 13:49:34;;;;;;;1.17;0.95;;;19.20;38.10;;;;;;5041031;28;20037;-52
2021/12/23 13:52:01;;;;;;;1.27;1.20;;;19.20;38.10;;;;;;5041212;28;20041;-46
2021/12/23 13:54:33;;;;;;;4.05;1.65;;;19.20;38.10;;;;;;5035165;28;20574;-52
2021/12/23 13:57:01;;;;;;;0.82;0.60;;;19.30;38.00;;;;;;5041159;28;20076;-50